CheckWX is a tool to help pilots better visualize weather data.  It is not intended as a substitute for an official pre-flight weather briefing.

05:14:01 UTC

LTBG TAF
Bandırma Airport
Turkey
TAF LTBG 240140Z 2403/2412 02030G40KT 9999 SCT007 BKN030 OVC080

Feb-24@
03:00 UTC

Feb-24 @ 03:00 UTC

Feb-24@
12:00 UTC

Feb-24 @ 12:00 UTC

TAF LTBG 240140Z 2403/2412 02030G40KT 9999 SCT007 BKN030 OVC080
Wind
  • 020° at 30 KTS
  • {Gusting to 40 KTS
Cloud Levels
  • Scattered at 700' AGL
  • Broken at 3,000' AGL
  • Overcast at 8,000' AGL